sensor_id;sensor_type;location;lat;lon;timestamp;temperature;humidity
44982;DHT22;30716;41.740;-70.400;2022-09-09T00:03:45;24.80;59.30
44982;DHT22;30716;41.740;-70.400;2022-09-09T00:06:31;24.80;59.40
44982;DHT22;30716;41.740;-70.400;2022-09-09T00:09:19;24.80;59.40
44982;DHT22;30716;41.740;-70.400;2022-09-09T00:11:51;24.80;59.40
44982;DHT22;30716;41.740;-70.400;2022-09-09T00:17:02;24.80;59.40
44982;DHT22;30716;41.740;-70.400;2022-09-09T00:19:44;24.80;59.40
44982;DHT22;30716;41.740;-70.400;2022-09-09T00:22:34;24.80;59.50
44982;DHT22;30716;41.740;-70.400;2022-09-09T00:25:23;24.70;59.20
44982;DHT22;30716;41.740;-70.400;2022-09-09T00:27:54;24.70;59.20
44982;DHT22;30716;41.740;-70.400;2022-09-09T00:30:23;24.70;59.20
44982;DHT22;30716;41.740;-70.400;2022-09-09T00:32:54;24.70;59.10
44982;DHT22;30716;41.740;-70.400;2022-09-09T00:35:34;24.70;59.10
44982;DHT22;30716;41.740;-70.400;2022-09-09T00:38:24;24.70;59.10
44982;DHT22;30716;41.740;-70.400;2022-09-09T00:46:09;24.70;59.20
44982;DHT22;30716;41.740;-70.400;2022-09-09T00:51:29;24.70;59.40
44982;DHT22;30716;41.740;-70.400;2022-09-09T01:00:33;24.70;59.30
44982;DHT22;30716;41.740;-70.400;2022-09-09T01:03:37;24.70;59.40
44982;DHT22;30716;41.740;-70.400;2022-09-09T01:06:30;24.70;59.40
44982;DHT22;30716;41.740;-70.400;2022-09-09T01:15:33;24.70;59.50
44982;DHT22;30716;41.740;-70.400;2022-09-09T01:18:33;24.70;59.50
44982;DHT22;30716;41.740;-70.400;2022-09-09T01:21:29;24.70;59.50
44982;DHT22;30716;41.740;-70.400;2022-09-09T01:42:18;24.80;59.50
44982;DHT22;30716;41.740;-70.400;2022-09-09T01:45:11;24.80;59.60
44982;DHT22;30716;41.740;-70.400;2022-09-09T01:47:57;24.80;59.60
44982;DHT22;30716;41.740;-70.400;2022-09-09T01:50:46;24.80;59.50
44982;DHT22;30716;41.740;-70.400;2022-09-09T01:53:45;24.80;59.60
44982;DHT22;30716;41.740;-70.400;2022-09-09T02:00:22;24.90;59.60
44982;DHT22;30716;41.740;-70.400;2022-09-09T02:03:28;24.90;59.60
44982;DHT22;30716;41.740;-70.400;2022-09-09T02:06:21;24.90;59.60
44982;DHT22;30716;41.740;-70.400;2022-09-09T02:09:11;24.90;59.70
44982;DHT22;30716;41.740;-70.400;2022-09-09T02:12:18;24.80;59.60
44982;DHT22;30716;41.740;-70.400;2022-09-09T02:15:27;24.90;59.80
44982;DHT22;30716;41.740;-70.400;2022-09-09T02:18:25;24.90;59.80
44982;DHT22;30716;41.740;-70.400;2022-09-09T02:21:30;24.90;59.80
44982;DHT22;30716;41.740;-70.400;2022-09-09T02:24:39;24.90;59.80
44982;DHT22;30716;41.740;-70.400;2022-09-09T02:27:59;24.90;59.80
44982;DHT22;30716;41.740;-70.400;2022-09-09T02:31:17;24.90;59.80
44982;DHT22;30716;41.740;-70.400;2022-09-09T02:34:45;24.90;59.90
44982;DHT22;30716;41.740;-70.400;2022-09-09T02:38:05;24.90;60.00
44982;DHT22;30716;41.740;-70.400;2022-09-09T02:41:31;24.90;59.90
44982;DHT22;30716;41.740;-70.400;2022-09-09T02:44:48;24.90;60.00
44982;DHT22;30716;41.740;-70.400;2022-09-09T02:48:26;24.90;60.80
44982;DHT22;30716;41.740;-70.400;2022-09-09T02:58:50;24.90;59.90
44982;DHT22;30716;41.740;-70.400;2022-09-09T03:02:00;24.90;60.00
44982;DHT22;30716;41.740;-70.400;2022-09-09T03:05:13;24.90;60.00
44982;DHT22;30716;41.740;-70.400;2022-09-09T03:08:32;24.90;60.00
44982;DHT22;30716;41.740;-70.400;2022-09-09T03:11:45;24.90;60.00
44982;DHT22;30716;41.740;-70.400;2022-09-09T03:14:59;24.90;60.10
44982;DHT22;30716;41.740;-70.400;2022-09-09T03:18:17;24.90;60.10
44982;DHT22;30716;41.740;-70.400;2022-09-09T03:21:34;24.90;60.10
44982;DHT22;30716;41.740;-70.400;2022-09-09T03:24:50;24.90;60.10
44982;DHT22;30716;41.740;-70.400;2022-09-09T04:11:36;24.90;60.40
44982;DHT22;30716;41.740;-70.400;2022-09-09T04:14:04;24.90;60.50
44982;DHT22;30716;41.740;-70.400;2022-09-09T04:16:32;24.90;60.70
44982;DHT22;30716;41.740;-70.400;2022-09-09T04:19:04;24.90;60.70
44982;DHT22;30716;41.740;-70.400;2022-09-09T04:21:57;24.90;60.70
44982;DHT22;30716;41.740;-70.400;2022-09-09T04:24:44;24.90;60.70
44982;DHT22;30716;41.740;-70.400;2022-09-09T04:27:46;24.90;60.70
44982;DHT22;30716;41.740;-70.400;2022-09-09T04:35:04;24.90;60.70
44982;DHT22;30716;41.740;-70.400;2022-09-09T04:37:33;24.90;60.80
44982;DHT22;30716;41.740;-70.400;2022-09-09T04:40:31;24.90;60.80
44982;DHT22;30716;41.740;-70.400;2022-09-09T04:43:38;24.90;60.80
44982;DHT22;30716;41.740;-70.400;2022-09-09T04:46:26;24.90;60.70
44982;DHT22;30716;41.740;-70.400;2022-09-09T04:49:29;24.90;60.70
44982;DHT22;30716;41.740;-70.400;2022-09-09T04:52:38;24.90;60.70
44982;DHT22;30716;41.740;-70.400;2022-09-09T04:56:21;24.90;60.80
44982;DHT22;30716;41.740;-70.400;2022-09-09T04:59:30;24.90;60.70
44982;DHT22;30716;41.740;-70.400;2022-09-09T05:02:30;24.90;60.70
44982;DHT22;30716;41.740;-70.400;2022-09-09T05:05:38;24.90;60.70
44982;DHT22;30716;41.740;-70.400;2022-09-09T05:08:25;24.90;60.70
44982;DHT22;30716;41.740;-70.400;2022-09-09T05:11:30;24.90;60.70
44982;DHT22;30716;41.740;-70.400;2022-09-09T05:14:27;24.90;60.70
44982;DHT22;30716;41.740;-70.400;2022-09-09T05:17:20;24.90;60.70
44982;DHT22;30716;41.740;-70.400;2022-09-09T05:20:08;24.90;60.80
44982;DHT22;30716;41.740;-70.400;2022-09-09T05:22:58;24.80;60.70
44982;DHT22;30716;41.740;-70.400;2022-09-09T05:26:09;24.90;60.80
44982;DHT22;30716;41.740;-70.400;2022-09-09T05:29:08;24.90;60.80
44982;DHT22;30716;41.740;-70.400;2022-09-09T05:32:01;24.90;60.80
44982;DHT22;30716;41.740;-70.400;2022-09-09T05:34:50;24.80;60.70
44982;DHT22;30716;41.740;-70.400;2022-09-09T06:44:37;24.90;60.90
44982;DHT22;30716;41.740;-70.400;2022-09-09T06:47:04;24.90;60.80
44982;DHT22;30716;41.740;-70.400;2022-09-09T06:49:31;24.90;60.80
44982;DHT22;30716;41.740;-70.400;2022-09-09T06:52:22;24.90;60.80
44982;DHT22;30716;41.740;-70.400;2022-09-09T06:55:15;25.00;60.80
44982;DHT22;30716;41.740;-70.400;2022-09-09T06:58:09;25.00;60.80
44982;DHT22;30716;41.740;-70.400;2022-09-09T07:01:14;24.90;60.80
44982;DHT22;30716;41.740;-70.400;2022-09-09T07:04:02;24.90;60.70
44982;DHT22;30716;41.740;-70.400;2022-09-09T07:06:46;25.00;60.80
44982;DHT22;30716;41.740;-70.400;2022-09-09T07:09:27;24.90;60.70
44982;DHT22;30716;41.740;-70.400;2022-09-09T07:11:55;24.90;60.70
44982;DHT22;30716;41.740;-70.400;2022-09-09T07:14:24;24.90;60.80
44982;DHT22;30716;41.740;-70.400;2022-09-09T07:16:50;25.00;60.80
44982;DHT22;30716;41.740;-70.400;2022-09-09T07:19:17;24.90;60.60
44982;DHT22;30716;41.740;-70.400;2022-09-09T07:21:43;25.00;60.70
44982;DHT22;30716;41.740;-70.400;2022-09-09T07:24:10;25.00;60.70
44982;DHT22;30716;41.740;-70.400;2022-09-09T07:26:39;25.00;60.80
44982;DHT22;30716;41.740;-70.400;2022-09-09T07:29:46;25.00;60.70
44982;DHT22;30716;41.740;-70.400;2022-09-09T07:32:39;25.00;60.70
44982;DHT22;30716;41.740;-70.400;2022-09-09T07:35:21;25.00;60.70
44982;DHT22;30716;41.740;-70.400;2022-09-09T07:38:08;25.00;60.80
44982;DHT22;30716;41.740;-70.400;2022-09-09T07:40:53;25.00;60.70
44982;DHT22;30716;41.740;-70.400;2022-09-09T07:43:31;25.00;60.70
44982;DHT22;30716;41.740;-70.400;2022-09-09T07:46:26;25.00;60.70
44982;DHT22;30716;41.740;-70.400;2022-09-09T07:48:54;25.00;60.70
44982;DHT22;30716;41.740;-70.400;2022-09-09T07:51:29;25.00;60.70
44982;DHT22;30716;41.740;-70.400;2022-09-09T07:54:24;25.00;60.70
44982;DHT22;30716;41.740;-70.400;2022-09-09T07:57:09;25.00;60.70
44982;DHT22;30716;41.740;-70.400;2022-09-09T08:00:06;24.90;60.60
44982;DHT22;30716;41.740;-70.400;2022-09-09T08:03:07;24.90;60.70
44982;DHT22;30716;41.740;-70.400;2022-09-09T08:06:20;24.90;60.70
44982;DHT22;30716;41.740;-70.400;2022-09-09T08:09:23;25.00;60.70
44982;DHT22;30716;41.740;-70.400;2022-09-09T08:12:36;24.90;60.60
44982;DHT22;30716;41.740;-70.400;2022-09-09T08:15:24;24.90;60.60
44982;DHT22;30716;41.740;-70.400;2022-09-09T08:18:13;25.00;60.70
44982;DHT22;30716;41.740;-70.400;2022-09-09T08:21:10;25.00;60.60
44982;DHT22;30716;41.740;-70.400;2022-09-09T08:24:08;25.00;60.70
44982;DHT22;30716;41.740;-70.400;2022-09-09T09:11:00;24.90;60.90
44982;DHT22;30716;41.740;-70.400;2022-09-09T09:17:29;24.90;60.80
44982;DHT22;30716;41.740;-70.400;2022-09-09T09:20:58;24.90;60.80
44982;DHT22;30716;41.740;-70.400;2022-09-09T09:28:25;24.90;60.80
44982;DHT22;30716;41.740;-70.400;2022-09-09T09:31:48;24.90;60.80
44982;DHT22;30716;41.740;-70.400;2022-09-09T09:35:13;24.90;60.90
44982;DHT22;30716;41.740;-70.400;2022-09-09T09:38:29;24.90;60.80
44982;DHT22;30716;41.740;-70.400;2022-09-09T09:41:42;24.90;60.80
44982;DHT22;30716;41.740;-70.400;2022-09-09T09:44:28;24.90;60.90
44982;DHT22;30716;41.740;-70.400;2022-09-09T09:47:13;24.90;60.80
44982;DHT22;30716;41.740;-70.400;2022-09-09T09:49:54;24.90;60.80
44982;DHT22;30716;41.740;-70.400;2022-09-09T09:52:24;24.90;60.80
44982;DHT22;30716;41.740;-70.400;2022-09-09T09:54:58;24.90;60.90
44982;DHT22;30716;41.740;-70.400;2022-09-09T09:57:34;24.90;60.70
44982;DHT22;30716;41.740;-70.400;2022-09-09T10:00:19;24.90;60.80
44982;DHT22;30716;41.740;-70.400;2022-09-09T10:03:25;24.90;60.70
44982;DHT22;30716;41.740;-70.400;2022-09-09T10:05:54;24.90;60.80
44982;DHT22;30716;41.740;-70.400;2022-09-09T10:08:44;24.90;60.80
44982;DHT22;30716;41.740;-70.400;2022-09-09T10:17:27;24.90;60.70
44982;DHT22;30716;41.740;-70.400;2022-09-09T10:20:10;24.90;60.80
44982;DHT22;30716;41.740;-70.400;2022-09-09T10:22:51;24.90;60.80
44982;DHT22;30716;41.740;-70.400;2022-09-09T10:38:46;24.90;61.00
44982;DHT22;30716;41.740;-70.400;2022-09-09T10:42:16;24.90;60.80
44982;DHT22;30716;41.740;-70.400;2022-09-09T10:59:58;24.80;60.90
44982;DHT22;30716;41.740;-70.400;2022-09-09T11:03:16;24.80;60.90
44982;DHT22;30716;41.740;-70.400;2022-09-09T11:05:49;24.90;61.00
44982;DHT22;30716;41.740;-70.400;2022-09-09T11:08:21;24.90;61.00
44982;DHT22;30716;41.740;-70.400;2022-09-09T11:17:42;24.80;60.70
44982;DHT22;30716;41.740;-70.400;2022-09-09T11:21:04;24.90;60.80
44982;DHT22;30716;41.740;-70.400;2022-09-09T11:24:31;24.90;61.60
44982;DHT22;30716;41.740;-70.400;2022-09-09T11:27:45;24.90;60.80
44982;DHT22;30716;41.740;-70.400;2022-09-09T11:30:59;24.90;60.80
44982;DHT22;30716;41.740;-70.400;2022-09-09T11:37:23;24.80;60.00
44982;DHT22;30716;41.740;-70.400;2022-09-09T11:40:25;24.90;59.90
44982;DHT22;30716;41.740;-70.400;2022-09-09T11:43:18;24.80;59.90
44982;DHT22;30716;41.740;-70.400;2022-09-09T11:46:07;24.80;60.20
44982;DHT22;30716;41.740;-70.400;2022-09-09T11:49:04;24.80;60.00
44982;DHT22;30716;41.740;-70.400;2022-09-09T11:51:54;24.80;60.00
44982;DHT22;30716;41.740;-70.400;2022-09-09T11:58:23;24.80;59.70
44982;DHT22;30716;41.740;-70.400;2022-09-09T12:01:27;24.80;59.70
44982;DHT22;30716;41.740;-70.400;2022-09-09T12:04:27;24.70;59.70
44982;DHT22;30716;41.740;-70.400;2022-09-09T12:10:22;24.70;59.50
44982;DHT22;30716;41.740;-70.400;2022-09-09T12:13:24;24.70;59.50
44982;DHT22;30716;41.740;-70.400;2022-09-09T12:16:40;24.70;59.30
44982;DHT22;30716;41.740;-70.400;2022-09-09T12:19:31;24.70;59.30
44982;DHT22;30716;41.740;-70.400;2022-09-09T12:22:37;24.70;59.30
44982;DHT22;30716;41.740;-70.400;2022-09-09T12:28:20;24.70;59.20
44982;DHT22;30716;41.740;-70.400;2022-09-09T12:33:37;24.70;59.40
44982;DHT22;30716;41.740;-70.400;2022-09-09T12:36:14;24.70;59.50
44982;DHT22;30716;41.740;-70.400;2022-09-09T12:39:24;24.70;59.50
44982;DHT22;30716;41.740;-70.400;2022-09-09T12:41:54;24.70;59.50
44982;DHT22;30716;41.740;-70.400;2022-09-09T12:44:25;24.70;59.50
44982;DHT22;30716;41.740;-70.400;2022-09-09T12:46:54;24.70;59.50
44982;DHT22;30716;41.740;-70.400;2022-09-09T12:49:40;24.70;59.60
44982;DHT22;30716;41.740;-70.400;2022-09-09T12:52:14;24.70;59.70
44982;DHT22;30716;41.740;-70.400;2022-09-09T12:54:45;24.70;59.80
44982;DHT22;30716;41.740;-70.400;2022-09-09T12:57:17;24.70;60.50
44982;DHT22;30716;41.740;-70.400;2022-09-09T12:59:44;24.80;59.80
44982;DHT22;30716;41.740;-70.400;2022-09-09T13:02:26;24.70;59.90
44982;DHT22;30716;41.740;-70.400;2022-09-09T13:04:54;24.70;59.70
44982;DHT22;30716;41.740;-70.400;2022-09-09T13:07:21;24.70;60.00
44982;DHT22;30716;41.740;-70.400;2022-09-09T13:09:54;24.70;59.80
44982;DHT22;30716;41.740;-70.400;2022-09-09T13:12:43;24.70;59.70
44982;DHT22;30716;41.740;-70.400;2022-09-09T13:15:58;24.60;59.60
44982;DHT22;30716;41.740;-70.400;2022-09-09T13:19:14;24.70;59.70
44982;DHT22;30716;41.740;-70.400;2022-09-09T13:22:20;24.70;59.80
44982;DHT22;30716;41.740;-70.400;2022-09-09T13:25:29;24.60;59.70
44982;DHT22;30716;41.740;-70.400;2022-09-09T13:28:31;24.70;59.50
44982;DHT22;30716;41.740;-70.400;2022-09-09T13:31:36;24.60;58.60
44982;DHT22;30716;41.740;-70.400;2022-09-09T13:34:28;24.60;58.00
44982;DHT22;30716;41.740;-70.400;2022-09-09T13:39:54;24.50;57.60
44982;DHT22;30716;41.740;-70.400;2022-09-09T13:42:29;24.50;57.60
44982;DHT22;30716;41.740;-70.400;2022-09-09T13:44:58;24.40;57.20
44982;DHT22;30716;41.740;-70.400;2022-09-09T13:47:36;24.40;57.20
44982;DHT22;30716;41.740;-70.400;2022-09-09T13:50:28;24.40;57.30
44982;DHT22;30716;41.740;-70.400;2022-09-09T13:52:58;24.30;57.40
44982;DHT22;30716;41.740;-70.400;2022-09-09T13:55:27;24.30;57.30
44982;DHT22;30716;41.740;-70.400;2022-09-09T13:57:59;24.30;57.20
44982;DHT22;30716;41.740;-70.400;2022-09-09T14:00:29;24.30;57.50
44982;DHT22;30716;41.740;-70.400;2022-09-09T14:02:56;24.30;57.80
44982;DHT22;30716;41.740;-70.400;2022-09-09T14:05:22;24.30;57.70
44982;DHT22;30716;41.740;-70.400;2022-09-09T14:07:50;24.30;57.70
44982;DHT22;30716;41.740;-70.400;2022-09-09T14:10:16;24.40;57.80
44982;DHT22;30716;41.740;-70.400;2022-09-09T14:12:43;24.40;57.90
44982;DHT22;30716;41.740;-70.400;2022-09-09T14:15:11;24.30;58.00
44982;DHT22;30716;41.740;-70.400;2022-09-09T14:17:38;24.30;58.00
44982;DHT22;30716;41.740;-70.400;2022-09-09T14:20:06;24.30;58.50
44982;DHT22;30716;41.740;-70.400;2022-09-09T14:22:35;24.30;57.80
44982;DHT22;30716;41.740;-70.400;2022-09-09T14:25:03;24.30;57.40
44982;DHT22;30716;41.740;-70.400;2022-09-09T14:27:30;24.30;57.40
44982;DHT22;30716;41.740;-70.400;2022-09-09T14:29:56;24.30;57.40
44982;DHT22;30716;41.740;-70.400;2022-09-09T14:32:23;24.30;57.20
44982;DHT22;30716;41.740;-70.400;2022-09-09T14:34:50;24.20;56.80
44982;DHT22;30716;41.740;-70.400;2022-09-09T14:37:17;24.20;56.90
44982;DHT22;30716;41.740;-70.400;2022-09-09T14:39:44;24.20;57.50
44982;DHT22;30716;41.740;-70.400;2022-09-09T14:42:13;24.20;57.30
44982;DHT22;30716;41.740;-70.400;2022-09-09T14:44:40;24.20;57.50
44982;DHT22;30716;41.740;-70.400;2022-09-09T14:47:08;24.20;57.50
44982;DHT22;30716;41.740;-70.400;2022-09-09T14:49:37;24.20;57.00
44982;DHT22;30716;41.740;-70.400;2022-09-09T14:52:04;24.20;57.60
44982;DHT22;30716;41.740;-70.400;2022-09-09T14:54:34;24.20;57.80
44982;DHT22;30716;41.740;-70.400;2022-09-09T14:57:00;24.20;57.70
44982;DHT22;30716;41.740;-70.400;2022-09-09T14:59:27;24.20;57.70
44982;DHT22;30716;41.740;-70.400;2022-09-09T15:01:53;24.10;57.80
44982;DHT22;30716;41.740;-70.400;2022-09-09T15:04:20;24.10;57.80
44982;DHT22;30716;41.740;-70.400;2022-09-09T15:06:46;24.20;57.70
44982;DHT22;30716;41.740;-70.400;2022-09-09T15:09:14;24.20;57.60
44982;DHT22;30716;41.740;-70.400;2022-09-09T15:11:41;24.20;57.50
44982;DHT22;30716;41.740;-70.400;2022-09-09T15:14:08;24.20;57.50
44982;DHT22;30716;41.740;-70.400;2022-09-09T15:16:35;24.20;57.30
44982;DHT22;30716;41.740;-70.400;2022-09-09T15:19:03;24.20;57.30
44982;DHT22;30716;41.740;-70.400;2022-09-09T15:21:33;24.20;57.20
44982;DHT22;30716;41.740;-70.400;2022-09-09T15:24:00;24.20;57.00
44982;DHT22;30716;41.740;-70.400;2022-09-09T15:26:26;24.20;57.00
44982;DHT22;30716;41.740;-70.400;2022-09-09T15:28:53;24.20;57.00
44982;DHT22;30716;41.740;-70.400;2022-09-09T15:31:21;24.20;56.40
44982;DHT22;30716;41.740;-70.400;2022-09-09T15:33:50;24.20;56.20
44982;DHT22;30716;41.740;-70.400;2022-09-09T15:38:45;24.20;56.40
44982;DHT22;30716;41.740;-70.400;2022-09-09T15:41:12;24.30;56.40
44982;DHT22;30716;41.740;-70.400;2022-09-09T15:43:42;24.30;56.40
44982;DHT22;30716;41.740;-70.400;2022-09-09T15:49:45;24.20;56.70
44982;DHT22;30716;41.740;-70.400;2022-09-09T15:51:57;24.20;56.80
44982;DHT22;30716;41.740;-70.400;2022-09-09T15:54:26;24.20;56.90
44982;DHT22;30716;41.740;-70.400;2022-09-09T15:56:55;24.20;56.90
44982;DHT22;30716;41.740;-70.400;2022-09-09T15:59:26;24.20;56.80
44982;DHT22;30716;41.740;-70.400;2022-09-09T16:01:56;24.20;56.80
44982;DHT22;30716;41.740;-70.400;2022-09-09T16:04:24;24.20;57.00
44982;DHT22;30716;41.740;-70.400;2022-09-09T16:09:18;24.20;56.90
44982;DHT22;30716;41.740;-70.400;2022-09-09T16:11:45;24.10;56.90
44982;DHT22;30716;41.740;-70.400;2022-09-09T16:14:13;24.10;56.50
44982;DHT22;30716;41.740;-70.400;2022-09-09T16:16:41;24.20;56.90
44982;DHT22;30716;41.740;-70.400;2022-09-09T16:19:11;24.20;56.70
44982;DHT22;30716;41.740;-70.400;2022-09-09T16:21:41;24.10;56.70
44982;DHT22;30716;41.740;-70.400;2022-09-09T16:24:09;24.20;56.90
44982;DHT22;30716;41.740;-70.400;2022-09-09T16:26:38;24.20;56.80
44982;DHT22;30716;41.740;-70.400;2022-09-09T16:29:05;24.20;56.70
44982;DHT22;30716;41.740;-70.400;2022-09-09T16:31:32;24.20;56.30
44982;DHT22;30716;41.740;-70.400;2022-09-09T16:33:58;24.20;55.80
44982;DHT22;30716;41.740;-70.400;2022-09-09T16:36:27;24.20;55.70
44982;DHT22;30716;41.740;-70.400;2022-09-09T16:39:05;24.20;55.60
44982;DHT22;30716;41.740;-70.400;2022-09-09T16:41:32;24.10;55.50
44982;DHT22;30716;41.740;-70.400;2022-09-09T16:44:04;24.10;56.00
44982;DHT22;30716;41.740;-70.400;2022-09-09T16:46:32;24.10;56.20
44982;DHT22;30716;41.740;-70.400;2022-09-09T16:49:01;24.10;57.00
44982;DHT22;30716;41.740;-70.400;2022-09-09T16:51:30;24.10;56.40
44982;DHT22;30716;41.740;-70.400;2022-09-09T16:53:59;24.10;56.40
44982;DHT22;30716;41.740;-70.400;2022-09-09T16:56:28;24.10;56.30
44982;DHT22;30716;41.740;-70.400;2022-09-09T16:58:58;24.10;56.40
44982;DHT22;30716;41.740;-70.400;2022-09-09T17:01:25;24.10;56.50
44982;DHT22;30716;41.740;-70.400;2022-09-09T17:03:56;24.20;56.60
44982;DHT22;30716;41.740;-70.400;2022-09-09T17:06:23;24.20;56.90
44982;DHT22;30716;41.740;-70.400;2022-09-09T17:09:01;24.20;56.90
44982;DHT22;30716;41.740;-70.400;2022-09-09T17:11:29;24.20;56.50
44982;DHT22;30716;41.740;-70.400;2022-09-09T17:13:56;24.10;55.90
44982;DHT22;30716;41.740;-70.400;2022-09-09T17:16:25;24.10;55.80
44982;DHT22;30716;41.740;-70.400;2022-09-09T17:18:54;24.10;55.80
44982;DHT22;30716;41.740;-70.400;2022-09-09T17:21:23;24.10;56.00
44982;DHT22;30716;41.740;-70.400;2022-09-09T17:23:52;24.10;55.80
44982;DHT22;30716;41.740;-70.400;2022-09-09T17:26:21;24.10;56.00
44982;DHT22;30716;41.740;-70.400;2022-09-09T17:28:48;24.10;56.20
44982;DHT22;30716;41.740;-70.400;2022-09-09T17:31:17;24.10;56.50
44982;DHT22;30716;41.740;-70.400;2022-09-09T17:33:47;24.10;56.60
44982;DHT22;30716;41.740;-70.400;2022-09-09T17:36:24;24.10;56.60
44982;DHT22;30716;41.740;-70.400;2022-09-09T17:38:51;24.10;56.70
44982;DHT22;30716;41.740;-70.400;2022-09-09T17:41:21;24.10;56.80
44982;DHT22;30716;41.740;-70.400;2022-09-09T17:43:48;24.10;56.70
44982;DHT22;30716;41.740;-70.400;2022-09-09T17:46:19;24.10;56.70
44982;DHT22;30716;41.740;-70.400;2022-09-09T17:48:49;24.10;56.70
44982;DHT22;30716;41.740;-70.400;2022-09-09T17:51:19;24.10;56.10
44982;DHT22;30716;41.740;-70.400;2022-09-09T17:53:48;24.10;56.00
44982;DHT22;30716;41.740;-70.400;2022-09-09T17:56:17;24.10;55.90
44982;DHT22;30716;41.740;-70.400;2022-09-09T17:58:47;24.10;55.80
44982;DHT22;30716;41.740;-70.400;2022-09-09T18:01:17;24.10;56.20
44982;DHT22;30716;41.740;-70.400;2022-09-09T18:03:45;24.00;56.20
44982;DHT22;30716;41.740;-70.400;2022-09-09T18:06:16;24.00;56.50
44982;DHT22;30716;41.740;-70.400;2022-09-09T18:08:48;24.10;56.70
44982;DHT22;30716;41.740;-70.400;2022-09-09T18:11:15;24.10;56.60
44982;DHT22;30716;41.740;-70.400;2022-09-09T18:13:41;24.10;56.60
44982;DHT22;30716;41.740;-70.400;2022-09-09T18:16:09;24.10;56.50
44982;DHT22;30716;41.740;-70.400;2022-09-09T18:18:36;24.10;56.50
44982;DHT22;30716;41.740;-70.400;2022-09-09T18:21:06;24.20;56.80
44982;DHT22;30716;41.740;-70.400;2022-09-09T18:23:37;24.10;56.70
44982;DHT22;30716;41.740;-70.400;2022-09-09T18:26:13;24.10;56.80
44982;DHT22;30716;41.740;-70.400;2022-09-09T18:28:41;24.10;56.80
44982;DHT22;30716;41.740;-70.400;2022-09-09T18:31:10;24.10;56.90
44982;DHT22;30716;41.740;-70.400;2022-09-09T18:33:38;24.10;56.60
44982;DHT22;30716;41.740;-70.400;2022-09-09T18:36:17;24.10;56.50
44982;DHT22;30716;41.740;-70.400;2022-09-09T18:38:44;24.10;56.30
44982;DHT22;30716;41.740;-70.400;2022-09-09T18:41:16;24.10;56.00
44982;DHT22;30716;41.740;-70.400;2022-09-09T18:43:43;24.10;56.10
44982;DHT22;30716;41.740;-70.400;2022-09-09T18:46:11;24.00;56.30
44982;DHT22;30716;41.740;-70.400;2022-09-09T18:48:38;24.10;56.50
44982;DHT22;30716;41.740;-70.400;2022-09-09T18:51:07;24.10;56.40
44982;DHT22;30716;41.740;-70.400;2022-09-09T18:53:35;24.10;56.40
44982;DHT22;30716;41.740;-70.400;2022-09-09T18:56:05;24.10;56.40
44982;DHT22;30716;41.740;-70.400;2022-09-09T18:58:32;24.20;56.40
44982;DHT22;30716;41.740;-70.400;2022-09-09T19:01:00;24.20;56.50
44982;DHT22;30716;41.740;-70.400;2022-09-09T19:03:29;24.20;56.50
44982;DHT22;30716;41.740;-70.400;2022-09-09T19:06:05;24.20;56.50
44982;DHT22;30716;41.740;-70.400;2022-09-09T19:08:37;24.20;55.90
44982;DHT22;30716;41.740;-70.400;2022-09-09T19:11:05;24.10;55.50
44982;DHT22;30716;41.740;-70.400;2022-09-09T19:13:32;24.10;55.50
44982;DHT22;30716;41.740;-70.400;2022-09-09T19:16:06;24.10;55.20
44982;DHT22;30716;41.740;-70.400;2022-09-09T19:18:33;24.10;55.50
44982;DHT22;30716;41.740;-70.400;2022-09-09T19:21:16;24.10;55.60
44982;DHT22;30716;41.740;-70.400;2022-09-09T19:23:45;24.10;55.80
44982;DHT22;30716;41.740;-70.400;2022-09-09T19:26:12;24.10;56.00
44982;DHT22;30716;41.740;-70.400;2022-09-09T19:28:43;24.10;55.90
44982;DHT22;30716;41.740;-70.400;2022-09-09T19:31:16;24.20;56.00
44982;DHT22;30716;41.740;-70.400;2022-09-09T19:33:46;24.20;56.00
44982;DHT22;30716;41.740;-70.400;2022-09-09T19:36:15;24.20;56.10
44982;DHT22;30716;41.740;-70.400;2022-09-09T19:38:46;24.20;56.10
44982;DHT22;30716;41.740;-70.400;2022-09-09T19:41:18;24.20;56.10
44982;DHT22;30716;41.740;-70.400;2022-09-09T19:43:46;24.20;56.20
44982;DHT22;30716;41.740;-70.400;2022-09-09T19:46:13;24.20;56.20
44982;DHT22;30716;41.740;-70.400;2022-09-09T19:48:44;24.20;56.30
44982;DHT22;30716;41.740;-70.400;2022-09-09T19:51:14;24.20;56.50
44982;DHT22;30716;41.740;-70.400;2022-09-09T19:53:43;24.20;56.40
44982;DHT22;30716;41.740;-70.400;2022-09-09T19:56:18;24.20;56.50
44982;DHT22;30716;41.740;-70.400;2022-09-09T19:58:46;24.20;56.40
44982;DHT22;30716;41.740;-70.400;2022-09-09T20:01:17;24.20;56.50
44982;DHT22;30716;41.740;-70.400;2022-09-09T20:03:46;24.20;56.50
44982;DHT22;30716;41.740;-70.400;2022-09-09T20:06:15;24.30;56.50
44982;DHT22;30716;41.740;-70.400;2022-09-09T20:08:44;24.20;56.30
44982;DHT22;30716;41.740;-70.400;2022-09-09T20:11:14;24.30;56.40
44982;DHT22;30716;41.740;-70.400;2022-09-09T20:13:41;24.20;56.40
44982;DHT22;30716;41.740;-70.400;2022-09-09T20:16:11;24.30;56.40
44982;DHT22;30716;41.740;-70.400;2022-09-09T20:18:43;24.30;56.40
44982;DHT22;30716;41.740;-70.400;2022-09-09T20:21:13;24.30;56.40
44982;DHT22;30716;41.740;-70.400;2022-09-09T20:23:45;24.30;56.80
44982;DHT22;30716;41.740;-70.400;2022-09-09T20:26:14;24.30;56.80
44982;DHT22;30716;41.740;-70.400;2022-09-09T20:28:43;24.30;56.70
44982;DHT22;30716;41.740;-70.400;2022-09-09T20:31:17;24.40;56.70
44982;DHT22;30716;41.740;-70.400;2022-09-09T20:33:45;24.40;56.70
44982;DHT22;30716;41.740;-70.400;2022-09-09T20:36:26;24.30;56.50
44982;DHT22;30716;41.740;-70.400;2022-09-09T20:38:58;24.30;56.60
44982;DHT22;30716;41.740;-70.400;2022-09-09T20:41:27;24.40;56.70
44982;DHT22;30716;41.740;-70.400;2022-09-09T20:43:56;24.40;56.70
44982;DHT22;30716;41.740;-70.400;2022-09-09T20:46:25;24.40;56.80
44982;DHT22;30716;41.740;-70.400;2022-09-09T20:48:52;24.40;56.80
44982;DHT22;30716;41.740;-70.400;2022-09-09T20:51:22;24.40;56.80
44982;DHT22;30716;41.740;-70.400;2022-09-09T20:53:54;24.40;56.90
44982;DHT22;30716;41.740;-70.400;2022-09-09T20:56:26;24.40;56.80
44982;DHT22;30716;41.740;-70.400;2022-09-09T20:58:53;24.40;56.90
44982;DHT22;30716;41.740;-70.400;2022-09-09T21:01:20;24.40;56.90
44982;DHT22;30716;41.740;-70.400;2022-09-09T21:03:51;24.40;57.00
44982;DHT22;30716;41.740;-70.400;2022-09-09T21:06:18;24.50;57.10
44982;DHT22;30716;41.740;-70.400;2022-09-09T21:08:45;24.40;57.00
44982;DHT22;30716;41.740;-70.400;2022-09-09T21:11:13;24.40;57.00
44982;DHT22;30716;41.740;-70.400;2022-09-09T21:13:40;24.40;57.00
44982;DHT22;30716;41.740;-70.400;2022-09-09T21:16:11;24.50;57.10
44982;DHT22;30716;41.740;-70.400;2022-09-09T21:18:38;24.50;57.10